sensor_id;sensor_type;location;lat;lon;timestamp;pressure;altitude;pressure_sealevel;temperature;humidity
15604;BME280;7902;49.042;9.092;2023-07-02T00:01:45;98475.09;;;22.64;59.60
15604;BME280;7902;49.042;9.092;2023-07-02T00:04:12;98469.09;;;22.62;59.36
15604;BME280;7902;49.042;9.092;2023-07-02T00:06:44;98466.81;;;22.52;59.45
15604;BME280;7902;49.042;9.092;2023-07-02T00:09:10;98462.53;;;22.64;58.87
15604;BME280;7902;49.042;9.092;2023-07-02T00:11:41;98464.75;;;22.41;59.57
15604;BME280;7902;49.042;9.092;2023-07-02T00:14:08;98471.56;;;22.50;59.45
15604;BME280;7902;49.042;9.092;2023-07-02T00:16:37;98480.59;;;22.56;58.92
15604;BME280;7902;49.042;9.092;2023-07-02T00:19:03;98479.81;;;22.62;58.63
15604;BME280;7902;49.042;9.092;2023-07-02T00:21:29;98477.50;;;22.52;58.98
15604;BME280;7902;49.042;9.092;2023-07-02T00:23:59;98472.34;;;22.44;58.96
15604;BME280;7902;49.042;9.092;2023-07-02T00:26:26;98481.03;;;22.66;58.39
15604;BME280;7902;49.042;9.092;2023-07-02T00:28:55;98474.44;;;22.49;58.24
15604;BME280;7902;49.042;9.092;2023-07-02T00:31:22;98475.44;;;22.48;58.23
15604;BME280;7902;49.042;9.092;2023-07-02T00:33:49;98482.06;;;22.65;57.99
15604;BME280;7902;49.042;9.092;2023-07-02T00:36:15;98478.53;;;22.45;58.21
15604;BME280;7902;49.042;9.092;2023-07-02T00:38:42;98485.72;;;22.44;58.32
15604;BME280;7902;49.042;9.092;2023-07-02T00:41:09;98484.34;;;22.55;57.92
15604;BME280;7902;49.042;9.092;2023-07-02T00:43:35;98480.59;;;22.56;58.05
15604;BME280;7902;49.042;9.092;2023-07-02T00:46:01;98481.00;;;22.53;58.09
15604;BME280;7902;49.042;9.092;2023-07-02T00:48:29;98488.56;;;22.29;58.89
15604;BME280;7902;49.042;9.092;2023-07-02T00:50:55;98490.81;;;22.32;58.88
15604;BME280;7902;49.042;9.092;2023-07-02T00:53:21;98485.34;;;22.54;58.43
15604;BME280;7902;49.042;9.092;2023-07-02T00:55:47;98484.72;;;22.45;58.69
15604;BME280;7902;49.042;9.092;2023-07-02T00:58:13;98488.81;;;22.48;58.37
15604;BME280;7902;49.042;9.092;2023-07-02T01:00:44;98485.53;;;22.46;58.29
15604;BME280;7902;49.042;9.092;2023-07-02T01:03:11;98483.91;;;22.58;57.87
15604;BME280;7902;49.042;9.092;2023-07-02T01:05:37;98486.53;;;22.31;58.40
15604;BME280;7902;49.042;9.092;2023-07-02T01:08:04;98490.47;;;22.49;57.67
15604;BME280;7902;49.042;9.092;2023-07-02T01:10:30;98489.69;;;22.55;57.47
15604;BME280;7902;49.042;9.092;2023-07-02T01:13:05;98486.53;;;22.38;57.91
15604;BME280;7902;49.042;9.092;2023-07-02T01:15:32;98487.38;;;22.52;57.54
15604;BME280;7902;49.042;9.092;2023-07-02T01:17:59;98485.34;;;22.54;57.54
15604;BME280;7902;49.042;9.092;2023-07-02T01:20:26;98478.16;;;22.54;57.47
15604;BME280;7902;49.042;9.092;2023-07-02T01:22:52;98480.22;;;22.65;57.43
15604;BME280;7902;49.042;9.092;2023-07-02T01:25:18;98475.28;;;22.62;57.33
15604;BME280;7902;49.042;9.092;2023-07-02T01:27:44;98474.66;;;22.67;56.54
15604;BME280;7902;49.042;9.092;2023-07-02T01:30:10;98474.44;;;22.49;57.26
15604;BME280;7902;49.042;9.092;2023-07-02T01:32:37;98481.81;;;22.47;57.36
15604;BME280;7902;49.042;9.092;2023-07-02T01:35:03;98482.06;;;22.58;56.80
15604;BME280;7902;49.042;9.092;2023-07-02T01:37:29;98468.88;;;22.50;56.90
15604;BME280;7902;49.042;9.092;2023-07-02T01:40:06;98482.66;;;22.41;57.38
15604;BME280;7902;49.042;9.092;2023-07-02T01:42:32;98485.09;;;22.36;57.18
15604;BME280;7902;49.042;9.092;2023-07-02T01:44:58;98495.38;;;22.39;57.03
15604;BME280;7902;49.042;9.092;2023-07-02T01:47:24;98492.06;;;22.37;57.08
15604;BME280;7902;49.042;9.092;2023-07-02T01:49:50;98488.75;;;22.21;57.33
15604;BME280;7902;49.042;9.092;2023-07-02T01:52:16;98493.88;;;22.16;57.54
15604;BME280;7902;49.042;9.092;2023-07-02T01:54:43;98497.97;;;22.12;57.12
15604;BME280;7902;49.042;9.092;2023-07-02T01:57:09;98498.22;;;22.24;56.89
15604;BME280;7902;49.042;9.092;2023-07-02T01:59:35;98505.25;;;22.31;56.88
15604;BME280;7902;49.042;9.092;2023-07-02T02:02:01;98498.31;;;22.50;56.75
15604;BME280;7902;49.042;9.092;2023-07-02T02:04:27;98499.94;;;22.45;56.40
15604;BME280;7902;49.042;9.092;2023-07-02T02:06:53;98492.94;;;22.44;56.57
15604;BME280;7902;49.042;9.092;2023-07-02T02:09:19;98501.97;;;22.43;56.64
15604;BME280;7902;49.042;9.092;2023-07-02T02:11:49;98508.13;;;22.37;57.32
15604;BME280;7902;49.042;9.092;2023-07-02T02:14:16;98504.56;;;22.23;57.46
15604;BME280;7902;49.042;9.092;2023-07-02T02:16:43;98510.59;;;22.38;56.80
15604;BME280;7902;49.042;9.092;2023-07-02T02:19:11;98501.59;;;22.46;57.00
15604;BME280;7902;49.042;9.092;2023-07-02T02:21:37;98506.09;;;22.39;57.09
15604;BME280;7902;49.042;9.092;2023-07-02T02:24:03;98506.91;;;22.39;56.87
15604;BME280;7902;49.042;9.092;2023-07-02T02:26:30;98515.16;;;22.44;56.96
15604;BME280;7902;49.042;9.092;2023-07-02T02:28:56;98516.59;;;22.47;56.67
15604;BME280;7902;49.042;9.092;2023-07-02T02:31:22;98521.91;;;22.33;57.32
15604;BME280;7902;49.042;9.092;2023-07-02T02:33:48;98516.97;;;22.37;57.46
15604;BME280;7902;49.042;9.092;2023-07-02T02:36:14;98513.50;;;22.43;57.01
15604;BME280;7902;49.042;9.092;2023-07-02T02:38:40;98525.44;;;22.47;56.89
15604;BME280;7902;49.042;9.092;2023-07-02T02:41:06;98531.84;;;21.99;58.09
15604;BME280;7902;49.042;9.092;2023-07-02T02:43:34;98524.72;;;22.12;57.91
15604;BME280;7902;49.042;9.092;2023-07-02T02:46:00;98530.28;;;21.83;58.90
15604;BME280;7902;49.042;9.092;2023-07-02T02:48:26;98534.06;;;21.95;58.23
15604;BME280;7902;49.042;9.092;2023-07-02T02:50:52;98525.66;;;21.98;58.20
15604;BME280;7902;49.042;9.092;2023-07-02T02:53:17;98518.13;;;22.15;57.89
15604;BME280;7902;49.042;9.092;2023-07-02T02:55:43;98510.38;;;21.92;57.74
15604;BME280;7902;49.042;9.092;2023-07-02T02:58:09;98520.09;;;22.00;57.56
15604;BME280;7902;49.042;9.092;2023-07-02T03:00:35;98524.84;;;21.98;57.56
15604;BME280;7902;49.042;9.092;2023-07-02T03:03:01;98529.75;;;21.94;57.57
15604;BME280;7902;49.042;9.092;2023-07-02T03:05:28;98529.53;;;21.68;58.07
15604;BME280;7902;49.042;9.092;2023-07-02T03:07:54;98534.41;;;21.58;58.44
15604;BME280;7902;49.042;9.092;2023-07-02T03:10:20;98529.78;;;21.73;57.59
15604;BME280;7902;49.042;9.092;2023-07-02T03:12:47;98537.81;;;21.45;58.33
15604;BME280;7902;49.042;9.092;2023-07-02T03:15:13;98535.44;;;21.84;57.12
15604;BME280;7902;49.042;9.092;2023-07-02T03:17:39;98538.72;;;21.86;56.69
15604;BME280;7902;49.042;9.092;2023-07-02T03:20:06;98540.72;;;21.78;57.10
15604;BME280;7902;49.042;9.092;2023-07-02T03:22:34;98547.84;;;21.71;56.96
15604;BME280;7902;49.042;9.092;2023-07-02T03:25:00;98549.66;;;21.64;57.40
15604;BME280;7902;49.042;9.092;2023-07-02T03:27:26;98547.97;;;21.56;57.49
15604;BME280;7902;49.042;9.092;2023-07-02T03:29:52;98559.00;;;21.47;57.85
15604;BME280;7902;49.042;9.092;2023-07-02T03:32:18;98563.44;;;21.39;57.53
15604;BME280;7902;49.042;9.092;2023-07-02T03:34:44;98553.41;;;21.41;57.66
15604;BME280;7902;49.042;9.092;2023-07-02T03:37:10;98555.25;;;21.41;57.76
15604;BME280;7902;49.042;9.092;2023-07-02T03:39:36;98559.69;;;21.55;57.25
15604;BME280;7902;49.042;9.092;2023-07-02T03:42:02;98557.34;;;21.45;57.34
15604;BME280;7902;49.042;9.092;2023-07-02T03:44:27;98566.09;;;21.33;57.66
15604;BME280;7902;49.042;9.092;2023-07-02T03:46:53;98563.06;;;21.42;57.23
15604;BME280;7902;49.042;9.092;2023-07-02T03:49:19;98560.63;;;21.48;57.14
15604;BME280;7902;49.042;9.092;2023-07-02T03:51:45;98571.84;;;21.36;57.39
15604;BME280;7902;49.042;9.092;2023-07-02T03:54:11;98565.72;;;21.42;57.60
15604;BME280;7902;49.042;9.092;2023-07-02T03:56:37;98565.34;;;21.45;57.45
15604;BME280;7902;49.042;9.092;2023-07-02T03:59:03;98572.09;;;21.41;57.61
15604;BME280;7902;49.042;9.092;2023-07-02T04:01:29;98567.25;;;21.52;57.52
15604;BME280;7902;49.042;9.092;2023-07-02T04:03:55;98573.13;;;21.40;57.41
15604;BME280;7902;49.042;9.092;2023-07-02T04:06:22;98568.84;;;21.46;57.56
15604;BME280;7902;49.042;9.092;2023-07-02T04:08:48;98572.13;;;21.48;57.58
15604;BME280;7902;49.042;9.092;2023-07-02T04:11:14;98575.47;;;21.50;57.34
15604;BME280;7902;49.042;9.092;2023-07-02T04:13:40;98588.50;;;21.38;57.63
15604;BME280;7902;49.042;9.092;2023-07-02T04:16:07;98583.56;;;21.35;57.55
15604;BME280;7902;49.042;9.092;2023-07-02T04:18:33;98592.13;;;21.31;57.68
15604;BME280;7902;49.042;9.092;2023-07-02T04:21:00;98594.50;;;21.40;57.54
15604;BME280;7902;49.042;9.092;2023-07-02T04:23:26;98588.88;;;21.14;58.15
15604;BME280;7902;49.042;9.092;2023-07-02T04:25:52;98595.78;;;21.23;58.09
15604;BME280;7902;49.042;9.092;2023-07-02T04:28:18;98596.41;;;21.25;58.17
15604;BME280;7902;49.042;9.092;2023-07-02T04:30:44;98600.59;;;21.34;57.93
15604;BME280;7902;49.042;9.092;2023-07-02T04:33:11;98602.72;;;21.03;58.78
15604;BME280;7902;49.042;9.092;2023-07-02T04:35:39;98609.22;;;21.15;58.76
15604;BME280;7902;49.042;9.092;2023-07-02T04:38:05;98609.06;;;21.17;58.71
15604;BME280;7902;49.042;9.092;2023-07-02T04:40:32;98614.94;;;21.12;58.59
15604;BME280;7902;49.042;9.092;2023-07-02T04:42:58;98615.69;;;21.06;58.84
15604;BME280;7902;49.042;9.092;2023-07-02T04:45:25;98611.16;;;21.07;58.76
15604;BME280;7902;49.042;9.092;2023-07-02T04:47:52;98617.44;;;21.14;58.75
15604;BME280;7902;49.042;9.092;2023-07-02T04:50:18;98612.84;;;21.08;59.00
15604;BME280;7902;49.042;9.092;2023-07-02T04:52:44;98610.97;;;21.23;58.73
15604;BME280;7902;49.042;9.092;2023-07-02T04:55:10;98616.88;;;21.18;58.83
15604;BME280;7902;49.042;9.092;2023-07-02T04:57:37;98621.19;;;21.19;58.67
15604;BME280;7902;49.042;9.092;2023-07-02T05:00:03;98631.25;;;21.17;58.81
15604;BME280;7902;49.042;9.092;2023-07-02T05:02:31;98622.84;;;21.41;58.08
15604;BME280;7902;49.042;9.092;2023-07-02T05:04:57;98632.84;;;21.33;58.52
15604;BME280;7902;49.042;9.092;2023-07-02T05:07:23;98623.59;;;21.35;58.19
15604;BME280;7902;49.042;9.092;2023-07-02T05:09:49;98624.47;;;21.42;58.26
15604;BME280;7902;49.042;9.092;2023-07-02T05:12:17;98633.16;;;21.23;58.76
15604;BME280;7902;49.042;9.092;2023-07-02T05:14:43;98632.25;;;21.16;59.03
15604;BME280;7902;49.042;9.092;2023-07-02T05:17:09;98635.56;;;21.18;58.97
15604;BME280;7902;49.042;9.092;2023-07-02T05:19:35;98643.84;;;21.23;58.72
15604;BME280;7902;49.042;9.092;2023-07-02T05:22:01;98643.19;;;21.21;59.03
15604;BME280;7902;49.042;9.092;2023-07-02T05:24:27;98644.94;;;21.14;59.12
15604;BME280;7902;49.042;9.092;2023-07-02T05:26:53;98651.19;;;21.21;58.74
15604;BME280;7902;49.042;9.092;2023-07-02T05:29:19;98645.78;;;21.15;59.06
15604;BME280;7902;49.042;9.092;2023-07-02T05:31:44;98649.31;;;21.36;58.33
15604;BME280;7902;49.042;9.092;2023-07-02T05:34:10;98648.03;;;21.32;58.42
15604;BME280;7902;49.042;9.092;2023-07-02T05:36:37;98645.03;;;21.21;58.83
15604;BME280;7902;49.042;9.092;2023-07-02T05:39:03;98644.47;;;21.47;57.83
15604;BME280;7902;49.042;9.092;2023-07-02T05:41:29;98654.75;;;21.28;58.37
15604;BME280;7902;49.042;9.092;2023-07-02T05:44:02;98650.19;;;21.43;57.53
15604;BME280;7902;49.042;9.092;2023-07-02T05:46:28;98653.63;;;21.59;57.08
15604;BME280;7902;49.042;9.092;2023-07-02T05:48:54;98651.59;;;21.61;56.89
15604;BME280;7902;49.042;9.092;2023-07-02T05:51:23;98661.88;;;21.64;56.71
15604;BME280;7902;49.042;9.092;2023-07-02T05:53:50;98652.97;;;21.57;56.54
15604;BME280;7902;49.042;9.092;2023-07-02T05:56:16;98664.06;;;21.75;56.13
15604;BME280;7902;49.042;9.092;2023-07-02T05:58:42;98658.25;;;21.71;55.78
15604;BME280;7902;49.042;9.092;2023-07-02T06:01:08;98661.28;;;21.89;55.10
15604;BME280;7902;49.042;9.092;2023-07-02T06:03:34;98664.69;;;21.56;55.09
15604;BME280;7902;49.042;9.092;2023-07-02T06:05:59;98662.72;;;21.43;54.71
15604;BME280;7902;49.042;9.092;2023-07-02T06:08:25;98675.09;;;21.72;54.14
15604;BME280;7902;49.042;9.092;2023-07-02T06:10:52;98674.28;;;21.71;54.23
15604;BME280;7902;49.042;9.092;2023-07-02T06:13:18;98676.06;;;21.43;54.36
15604;BME280;7902;49.042;9.092;2023-07-02T06:15:44;98677.34;;;21.68;53.81
15604;BME280;7902;49.042;9.092;2023-07-02T06:18:12;98673.97;;;21.60;53.66
15604;BME280;7902;49.042;9.092;2023-07-02T06:20:38;98678.13;;;21.90;53.49
15604;BME280;7902;49.042;9.092;2023-07-02T06:23:04;98673.34;;;21.79;53.85
15604;BME280;7902;49.042;9.092;2023-07-02T06:25:30;98675.22;;;21.85;53.51
15604;BME280;7902;49.042;9.092;2023-07-02T06:27:55;98681.97;;;21.81;53.47
15604;BME280;7902;49.042;9.092;2023-07-02T06:30:24;98683.00;;;22.01;53.36
15604;BME280;7902;49.042;9.092;2023-07-02T06:32:50;98685.50;;;22.03;52.32
15604;BME280;7902;49.042;9.092;2023-07-02T06:35:16;98686.16;;;22.11;52.67
15604;BME280;7902;49.042;9.092;2023-07-02T06:37:42;98684.31;;;22.12;53.15
15604;BME280;7902;49.042;9.092;2023-07-02T06:40:08;98695.97;;;22.04;52.86
15604;BME280;7902;49.042;9.092;2023-07-02T06:42:34;98698.25;;;21.86;53.26
15604;BME280;7902;49.042;9.092;2023-07-02T06:45:04;98694.50;;;21.80;52.36
15604;BME280;7902;49.042;9.092;2023-07-02T06:47:30;98691.44;;;22.05;52.42
15604;BME280;7902;49.042;9.092;2023-07-02T06:49:56;98695.59;;;22.07;52.20
15604;BME280;7902;49.042;9.092;2023-07-02T06:52:22;98693.53;;;22.09;52.58
15604;BME280;7902;49.042;9.092;2023-07-02T06:54:48;98685.50;;;22.03;51.66
15604;BME280;7902;49.042;9.092;2023-07-02T06:57:14;98686.50;;;22.29;51.69
15604;BME280;7902;49.042;9.092;2023-07-02T06:59:40;98692.50;;;22.31;51.35
15604;BME280;7902;49.042;9.092;2023-07-02T07:02:06;98690.50;;;22.12;52.21
15604;BME280;7902;49.042;9.092;2023-07-02T07:04:32;98690.84;;;22.37;51.93
15604;BME280;7902;49.042;9.092;2023-07-02T07:07:00;98701.53;;;22.30;51.70
15604;BME280;7902;49.042;9.092;2023-07-02T07:09:29;98697.50;;;22.41;50.75
15604;BME280;7902;49.042;9.092;2023-07-02T07:11:55;98695.00;;;22.40;51.46
15604;BME280;7902;49.042;9.092;2023-07-02T07:14:21;98703.09;;;22.53;51.89
15604;BME280;7902;49.042;9.092;2023-07-02T07:16:47;98704.16;;;22.58;50.54
15604;BME280;7902;49.042;9.092;2023-07-02T07:19:13;98702.16;;;22.67;50.10
15604;BME280;7902;49.042;9.092;2023-07-02T07:21:39;98692.34;;;22.74;50.26
15604;BME280;7902;49.042;9.092;2023-07-02T07:24:06;98687.66;;;22.89;48.96
15604;BME280;7902;49.042;9.092;2023-07-02T07:26:32;98689.09;;;22.79;48.75
15604;BME280;7902;49.042;9.092;2023-07-02T07:28:58;98688.53;;;22.96;49.01
15604;BME280;7902;49.042;9.092;2023-07-02T07:31:24;98685.56;;;22.78;48.09
15604;BME280;7902;49.042;9.092;2023-07-02T07:33:50;98689.03;;;22.72;47.84
15604;BME280;7902;49.042;9.092;2023-07-02T07:36:16;98697.13;;;22.85;46.94
15604;BME280;7902;49.042;9.092;2023-07-02T07:38:45;98699.41;;;22.88;46.76
15604;BME280;7902;49.042;9.092;2023-07-02T07:41:11;98705.38;;;22.90;47.12
15604;BME280;7902;49.042;9.092;2023-07-02T07:43:37;98705.47;;;22.69;46.76
15604;BME280;7902;49.042;9.092;2023-07-02T07:46:03;98698.13;;;22.78;46.30
15604;BME280;7902;49.042;9.092;2023-07-02T07:48:29;98707.59;;;22.73;45.68
15604;BME280;7902;49.042;9.092;2023-07-02T07:50:55;98701.91;;;22.62;46.75
15604;BME280;7902;49.042;9.092;2023-07-02T07:53:20;98704.13;;;22.86;45.50
15604;BME280;7902;49.042;9.092;2023-07-02T07:55:46;98703.06;;;22.74;46.04
15604;BME280;7902;49.042;9.092;2023-07-02T07:58:12;98697.75;;;22.87;44.91
15604;BME280;7902;49.042;9.092;2023-07-02T08:00:38;98708.53;;;22.66;45.04
15604;BME280;7902;49.042;9.092;2023-07-02T08:03:04;98706.69;;;22.66;45.85
15604;BME280;7902;49.042;9.092;2023-07-02T08:05:30;98712.47;;;22.70;45.25
15604;BME280;7902;49.042;9.092;2023-07-02T08:07:56;98698.41;;;22.96;45.04
15604;BME280;7902;49.042;9.092;2023-07-02T08:10:23;98698.72;;;22.73;45.15
15604;BME280;7902;49.042;9.092;2023-07-02T08:12:51;98704.78;;;22.95;44.22
15604;BME280;7902;49.042;9.092;2023-07-02T08:15:19;98709.53;;;22.99;44.40
15604;BME280;7902;49.042;9.092;2023-07-02T08:17:45;98699.72;;;23.13;44.25
15604;BME280;7902;49.042;9.092;2023-07-02T08:20:11;98705.88;;;23.07;43.63
15604;BME280;7902;49.042;9.092;2023-07-02T08:22:38;98700.09;;;23.03;43.91
15604;BME280;7902;49.042;9.092;2023-07-02T08:25:05;98696.19;;;23.06;44.52
15604;BME280;7902;49.042;9.092;2023-07-02T08:27:31;98697.41;;;23.03;44.24
15604;BME280;7902;49.042;9.092;2023-07-02T08:29:57;98708.81;;;23.32;44.23
15604;BME280;7902;49.042;9.092;2023-07-02T08:32:23;98711.50;;;23.25;43.56
15604;BME280;7902;49.042;9.092;2023-07-02T08:34:49;98709.34;;;23.07;43.69
15604;BME280;7902;49.042;9.092;2023-07-02T08:37:17;98706.91;;;23.06;44.05
15604;BME280;7902;49.042;9.092;2023-07-02T08:39:43;98697.50;;;23.30;42.65
15604;BME280;7902;49.042;9.092;2023-07-02T08:42:09;98706.16;;;23.32;44.10
15604;BME280;7902;49.042;9.092;2023-07-02T08:44:35;98703.31;;;23.40;43.64
15604;BME280;7902;49.042;9.092;2023-07-02T08:47:05;98704.56;;;23.44;42.78
15604;BME280;7902;49.042;9.092;2023-07-02T08:49:31;98709.44;;;23.27;42.85
15604;BME280;7902;49.042;9.092;2023-07-02T08:51:57;98715.06;;;23.39;43.30
15604;BME280;7902;49.042;9.092;2023-07-02T08:54:23;98710.78;;;23.44;43.20
15604;BME280;7902;49.042;9.092;2023-07-02T08:56:49;98712.84;;;23.49;43.13
15604;BME280;7902;49.042;9.092;2023-07-02T08:59:15;98716.88;;;23.32;43.14
15604;BME280;7902;49.042;9.092;2023-07-02T09:01:49;98713.78;;;23.28;43.30
15604;BME280;7902;49.042;9.092;2023-07-02T09:04:17;98720.41;;;23.39;43.09
15604;BME280;7902;49.042;9.092;2023-07-02T09:06:43;98724.59;;;23.48;44.12
15604;BME280;7902;49.042;9.092;2023-07-02T09:09:09;98726.06;;;23.70;43.75
15604;BME280;7902;49.042;9.092;2023-07-02T09:11:46;98718.63;;;23.66;42.93
15604;BME280;7902;49.042;9.092;2023-07-02T09:14:27;98714.09;;;23.53;43.56
15604;BME280;7902;49.042;9.092;2023-07-02T09:17:13;98728.28;;;23.47;42.73
15604;BME280;7902;49.042;9.092;2023-07-02T09:19:50;98722.03;;;23.33;43.10
15604;BME280;7902;49.042;9.092;2023-07-02T09:22:16;98720.69;;;23.70;43.19
15604;BME280;7902;49.042;9.092;2023-07-02T09:24:54;98725.47;;;23.68;43.10
15604;BME280;7902;49.042;9.092;2023-07-02T09:27:20;98732.66;;;23.74;42.82
15604;BME280;7902;49.042;9.092;2023-07-02T09:29:52;98725.47;;;23.68;43.32
15604;BME280;7902;49.042;9.092;2023-07-02T09:32:25;98723.63;;;23.82;42.30
15604;BME280;7902;49.042;9.092;2023-07-02T09:34:55;98728.75;;;23.83;42.72
15604;BME280;7902;49.042;9.092;2023-07-02T09:37:24;98725.69;;;23.86;42.88
15604;BME280;7902;49.042;9.092;2023-07-02T09:39:51;98725.66;;;23.80;42.40
15604;BME280;7902;49.042;9.092;2023-07-02T09:42:21;98724.03;;;23.92;43.48
15604;BME280;7902;49.042;9.092;2023-07-02T09:44:48;98712.88;;;23.88;42.91
15604;BME280;7902;49.042;9.092;2023-07-02T09:47:17;98724.03;;;23.85;42.43
15604;BME280;7902;49.042;9.092;2023-07-02T09:49:54;98717.81;;;23.78;42.08
15604;BME280;7902;49.042;9.092;2023-07-02T09:52:21;98726.09;;;23.77;42.28
15604;BME280;7902;49.042;9.092;2023-07-02T09:54:47;98723.81;;;23.93;42.32
15604;BME280;7902;49.042;9.092;2023-07-02T09:57:13;98715.78;;;23.87;42.98
15604;BME280;7902;49.042;9.092;2023-07-02T09:59:40;98713.31;;;23.92;42.75
15604;BME280;7902;49.042;9.092;2023-07-02T10:02:08;98713.09;;;24.00;42.22
15604;BME280;7902;49.042;9.092;2023-07-02T10:04:42;98711.03;;;24.09;42.35
15604;BME280;7902;49.042;9.092;2023-07-02T10:07:09;98708.34;;;24.09;42.21
15604;BME280;7902;49.042;9.092;2023-07-02T10:09:39;98708.78;;;24.19;41.84
15604;BME280;7902;49.042;9.092;2023-07-02T10:12:18;98712.28;;;24.32;41.67
15604;BME280;7902;49.042;9.092;2023-07-02T10:14:45;98721.78;;;24.35;42.11
15604;BME280;7902;49.042;9.092;2023-07-02T10:17:26;98713.72;;;24.48;41.57
15604;BME280;7902;49.042;9.092;2023-07-02T10:19:55;98707.50;;;24.61;41.63
15604;BME280;7902;49.042;9.092;2023-07-02T10:22:22;98711.03;;;24.48;41.47
15604;BME280;7902;49.042;9.092;2023-07-02T10:24:55;98718.88;;;24.36;42.16
15604;BME280;7902;49.042;9.092;2023-07-02T10:27:40;98722.63;;;24.29;41.77
15604;BME280;7902;49.042;9.092;2023-07-02T10:30:08;98718.47;;;24.39;41.10
15604;BME280;7902;49.042;9.092;2023-07-02T10:32:36;98718.88;;;24.30;41.37
15604;BME280;7902;49.042;9.092;2023-07-02T10:35:16;98723.03;;;24.26;42.28
15604;BME280;7902;49.042;9.092;2023-07-02T10:37:42;98712.06;;;24.14;41.87
15604;BME280;7902;49.042;9.092;2023-07-02T10:40:09;98709.59;;;24.32;42.01
15604;BME280;7902;49.042;9.092;2023-07-02T10:45:11;98701.72;;;24.44;43.06
15604;BME280;7902;49.042;9.092;2023-07-02T10:47:40;98720.34;;;24.39;42.11
15604;BME280;7902;49.042;9.092;2023-07-02T10:50:15;98711.59;;;24.63;42.49
15604;BME280;7902;49.042;9.092;2023-07-02T10:52:41;98710.78;;;24.69;41.45
15604;BME280;7902;49.042;9.092;2023-07-02T10:55:07;98717.78;;;24.70;41.52
15604;BME280;7902;49.042;9.092;2023-07-02T10:57:33;98719.09;;;24.41;41.40
15604;BME280;7902;49.042;9.092;2023-07-02T11:00:06;98724.81;;;24.58;41.12
15604;BME280;7902;49.042;9.092;2023-07-02T11:02:37;98714.09;;;24.65;41.72
15604;BME280;7902;49.042;9.092;2023-07-02T11:05:04;98717.56;;;24.78;41.90
15604;BME280;7902;49.042;9.092;2023-07-02T11:07:35;98713.25;;;24.71;42.32
15604;BME280;7902;49.042;9.092;2023-07-02T11:10:01;98707.06;;;24.70;42.87
15604;BME280;7902;49.042;9.092;2023-07-02T11:12:28;98704.56;;;24.69;42.22
15604;BME280;7902;49.042;9.092;2023-07-02T11:14:54;98711.59;;;24.63;42.59
15604;BME280;7902;49.042;9.092;2023-07-02T11:17:25;98716.13;;;24.69;42.00
15604;BME280;7902;49.042;9.092;2023-07-02T11:19:53;98708.28;;;24.74;42.79
15604;BME280;7902;49.042;9.092;2023-07-02T11:22:19;98702.25;;;24.99;42.57
15604;BME280;7902;49.042;9.092;2023-07-02T11:24:45;98700.78;;;25.03;42.05
15604;BME280;7902;49.042;9.092;2023-07-02T11:27:20;98719.03;;;24.74;41.43
15604;BME280;7902;49.042;9.092;2023-07-02T11:29:46;98705.78;;;24.79;42.64
15604;BME280;7902;49.042;9.092;2023-07-02T11:32:12;98709.09;;;24.88;42.26
15604;BME280;7902;49.042;9.092;2023-07-02T11:34:39;98703.06;;;24.99;40.88
15604;BME280;7902;49.042;9.092;2023-07-02T11:37:05;98696.16;;;25.16;41.89
15604;BME280;7902;49.042;9.092;2023-07-02T11:39:32;98696.13;;;25.23;41.28
15604;BME280;7902;49.042;9.092;2023-07-02T11:41:58;98683.13;;;25.20;41.09
15604;BME280;7902;49.042;9.092;2023-07-02T11:44:24;98694.94;;;25.19;39.47
15604;BME280;7902;49.042;9.092;2023-07-02T11:46:50;98693.19;;;25.31;39.89
15604;BME280;7902;49.042;9.092;2023-07-02T11:49:16;98694.13;;;25.43;39.03
15604;BME280;7902;49.042;9.092;2023-07-02T11:51:43;98688.75;;;25.43;39.08
15604;BME280;7902;49.042;9.092;2023-07-02T11:54:14;98695.63;;;25.39;38.55
15604;BME280;7902;49.042;9.092;2023-07-02T11:56:41;98679.47;;;25.46;39.12
15604;BME280;7902;49.042;9.092;2023-07-02T11:59:08;98681.69;;;25.49;38.94
15604;BME280;7902;49.042;9.092;2023-07-02T12:01:34;98687.09;;;25.55;39.20
15604;BME280;7902;49.042;9.092;2023-07-02T12:04:00;98684.09;;;25.70;38.85
15604;BME280;7902;49.042;9.092;2023-07-02T12:06:26;98685.03;;;25.82;38.76
15604;BME280;7902;49.042;9.092;2023-07-02T12:08:52;98684.75;;;25.90;39.45
15604;BME280;7902;49.042;9.092;2023-07-02T12:11:18;98670.75;;;25.82;39.65
15604;BME280;7902;49.042;9.092;2023-07-02T12:13:44;98677.84;;;26.01;38.95
15604;BME280;7902;49.042;9.092;2023-07-02T12:16:10;98666.72;;;25.91;39.01
15604;BME280;7902;49.042;9.092;2023-07-02T12:18:36;98672.78;;;26.11;37.58
15604;BME280;7902;49.042;9.092;2023-07-02T12:21:01;98665.91;;;26.15;37.11
15604;BME280;7902;49.042;9.092;2023-07-02T12:23:27;98673.47;;;26.31;37.48
15604;BME280;7902;49.042;9.092;2023-07-02T12:25:53;98666.88;;;26.27;35.96
15604;BME280;7902;49.042;9.092;2023-07-02T12:28:19;98667.63;;;26.34;36.42
15604;BME280;7902;49.042;9.092;2023-07-02T12:30:45;98672.00;;;26.29;38.38
15604;BME280;7902;49.042;9.092;2023-07-02T12:33:11;98675.38;;;26.24;38.86
15604;BME280;7902;49.042;9.092;2023-07-02T12:35:37;98672.00;;;26.04;39.18
15604;BME280;7902;49.042;9.092;2023-07-02T12:38:03;98668.50;;;26.28;39.18
15604;BME280;7902;49.042;9.092;2023-07-02T12:40:29;98664.72;;;26.36;38.70
15604;BME280;7902;49.042;9.092;2023-07-02T12:42:55;98655.72;;;26.24;38.66
15604;BME280;7902;49.042;9.092;2023-07-02T12:45:22;98662.06;;;26.29;37.75
15604;BME280;7902;49.042;9.092;2023-07-02T12:47:48;98674.78;;;26.22;37.56
15604;BME280;7902;49.042;9.092;2023-07-02T12:50:14;98671.63;;;26.25;37.53
15604;BME280;7902;49.042;9.092;2023-07-02T12:52:40;98667.72;;;26.46;38.09
15604;BME280;7902;49.042;9.092;2023-07-02T12:55:06;98667.94;;;26.62;37.79
15604;BME280;7902;49.042;9.092;2023-07-02T12:57:32;98669.81;;;26.62;36.82
15604;BME280;7902;49.042;9.092;2023-07-02T12:59:58;98670.94;;;26.73;36.93
15604;BME280;7902;49.042;9.092;2023-07-02T13:02:24;98664.50;;;26.92;36.40
15604;BME280;7902;49.042;9.092;2023-07-02T13:04:50;98659.13;;;26.92;37.27
15604;BME280;7902;49.042;9.092;2023-07-02T13:07:16;98662.91;;;27.21;37.06
15604;BME280;7902;49.042;9.092;2023-07-02T13:09:42;98659.66;;;27.42;35.73
15604;BME280;7902;49.042;9.092;2023-07-02T13:12:09;98661.53;;;27.41;35.28